Time;durP1;ratioP1;P1;durP2;ratioP2;P2;SDS_P1;SDS_P2;PMS_P1;PMS_P2;Temp;Humidity;BMP_temperature;BMP_pressure;BME280_temperature;BME280_humidity;BME280_pressure;Samples;Min_cycle;Max_cycle;Signal;HPM_P1;HPM_P2
2021/11/15 00:00:51;;;;;;;10.30;9.18;;;;;;;17.53;62.29;102881.22;4825978;29;20039;-84
2021/11/15 00:07:22;;;;;;;11.00;8.70;;;;;;;17.54;62.76;102885.59;4827364;29;20102;-85
2021/11/15 00:09:55;;;;;;;11.82;8.52;;;;;;;17.52;62.77;102875.13;4826797;29;20303;-85
2021/11/15 00:12:37;;;;;;;10.27;8.50;;;;;;;17.52;62.49;102874.28;4789670;30;20107;-83
2021/11/15 00:15:07;;;;;;;10.13;8.55;;;;;;;17.52;62.74;102869.06;4788159;30;20068;-84
2021/11/15 00:18:00;;;;;;;9.93;8.93;;;;;;;17.53;62.58;102868.19;4775174;29;20099;-84
2021/11/15 00:20:30;;;;;;;9.75;8.57;;;;;;;17.51;62.68;102869.88;4798819;30;20062;-85
2021/11/15 00:23:02;;;;;;;10.40;9.07;;;;;;;17.53;62.66;102868.19;4808155;30;20238;-86
2021/11/15 00:25:38;;;;;;;11.63;8.88;;;;;;;17.53;62.53;102860.41;4792723;30;20540;-85
2021/11/15 00:28:20;;;;;;;9.80;8.18;;;;;;;17.53;62.60;102868.19;4794643;30;20090;-85
2021/11/15 00:31:09;;;;;;;8.80;7.90;;;;;;;17.53;62.76;102866.50;4811172;30;20412;-85
2021/11/15 00:33:37;;;;;;;10.18;8.63;;;;;;;17.52;62.46;102861.25;4796106;30;20066;-85
2021/11/15 00:36:03;;;;;;;9.93;8.90;;;;;;;17.51;62.84;102852.56;4795987;30;20076;-86
2021/11/15 00:41:53;;;;;;;10.20;8.48;;;;;;;17.51;62.50;102857.78;4811532;29;20053;-84
2021/11/15 00:47:48;;;;;;;9.68;8.57;;;;;;;17.52;62.50;102861.25;4805219;29;20077;-84
2021/11/15 00:50:19;;;;;;;12.60;9.10;;;;;;;17.52;62.58;102863.84;4793652;30;20047;-85
2021/11/15 00:56:28;;;;;;;10.98;8.15;;;;;;;17.54;62.43;102854.34;4793487;30;20062;-83
2021/11/15 00:59:39;;;;;;;9.68;8.38;;;;;;;17.53;62.37;102855.19;4796507;29;20119;-84
2021/11/15 01:05:20;;;;;;;11.02;8.45;;;;;;;17.53;62.39;102848.28;4810594;30;20606;-84
2021/11/15 01:07:56;;;;;;;10.57;9.05;;;;;;;17.53;62.34;102852.59;4810921;30;20019;-84
2021/11/15 01:10:44;;;;;;;9.35;8.13;;;;;;;17.52;62.07;102848.25;4796422;30;20058;-84
2021/11/15 01:13:22;;;;;;;11.00;8.88;;;;;;;17.53;62.35;102853.50;4792535;30;20239;-84
2021/11/15 01:15:55;;;;;;;10.15;8.57;;;;;;;17.51;62.33;102852.56;4763305;30;20033;-84
2021/11/15 01:18:22;;;;;;;;;;;;;;;17.53;62.41;102855.19;4792950;30;20039;-84
2021/11/15 01:21:17;;;;;;;11.23;8.75;;;;;;;17.51;62.47;102862.97;4793962;30;19913;-84
2021/11/15 01:23:50;;;;;;;9.48;8.48;;;;;;;17.53;62.33;102855.19;4708146;30;20033;-84
2021/11/15 01:26:17;;;;;;;10.73;8.25;;;;;;;17.50;62.27;102849.94;4709161;30;20041;-83
2021/11/15 01:28:44;;;;;;;11.25;8.68;;;;;;;17.48;62.37;102848.19;4722543;30;20105;-84
2021/11/15 01:31:21;;;;;;;11.82;8.55;;;;;;;17.50;62.13;102848.19;4705584;30;20091;-83
2021/11/15 01:33:48;;;;;;;11.02;8.52;;;;;;;17.50;62.35;102845.59;4714006;30;20056;-84
2021/11/15 01:36:24;;;;;;;10.52;8.98;;;;;;;17.50;62.41;102847.31;4721338;30;20045;-84
2021/11/15 01:39:20;;;;;;;11.30;9.25;;;;;;;17.52;62.29;102845.63;4720066;30;20042;-84
2021/11/15 01:41:46;;;;;;;9.73;8.57;;;;;;;17.50;62.39;102844.72;4717094;30;20063;-82
2021/11/15 01:59:14;;;;;;;9.80;8.55;;;;;;;17.48;62.27;102836.88;1296255;27;20062;-82
2021/11/15 02:01:43;;;;;;;10.20;8.48;;;;;;;17.50;62.11;102844.72;4824198;29;20054;-81
2021/11/15 02:04:08;;;;;;;9.52;8.45;;;;;;;17.48;62.04;102839.47;4821916;29;20137;-82
2021/11/15 02:06:35;;;;;;;9.98;8.55;;;;;;;17.48;61.97;102837.78;4821209;29;20027;-81
2021/11/15 02:09:16;;;;;;;10.85;8.68;;;;;;;17.48;62.02;102840.38;4820712;29;20038;-82
2021/11/15 02:11:41;;;;;;;10.20;8.60;;;;;;;17.47;62.32;102830.78;4821710;29;20087;-80
2021/11/15 02:14:07;;;;;;;9.23;7.72;;;;;;;17.48;62.03;102839.47;4820203;29;20082;-80
2021/11/15 02:16:33;;;;;;;10.48;8.30;;;;;;;17.48;62.36;102842.06;4820543;29;20038;-80
2021/11/15 02:19:00;;;;;;;10.40;8.25;;;;;;;17.48;62.03;102844.66;4804257;29;20026;-80
2021/11/15 02:21:26;;;;;;;11.88;8.43;;;;;;;17.48;62.04;102847.28;4788838;29;20046;-80
2021/11/15 02:23:52;;;;;;;9.88;8.07;;;;;;;17.47;61.95;102841.19;4827223;29;20045;-80
2021/11/15 02:26:21;;;;;;;10.70;8.65;;;;;;;17.47;61.96;102845.53;4827446;29;20478;-80
2021/11/15 02:28:50;;;;;;;10.45;8.50;;;;;;;17.48;62.25;102845.56;4815054;29;20031;-81
2021/11/15 02:31:20;;;;;;;10.40;8.27;;;;;;;17.47;61.92;102843.81;4829644;29;20392;-80
2021/11/15 02:33:52;;;;;;;10.65;8.18;;;;;;;17.45;61.73;102837.69;4785956;29;20034;-80
2021/11/15 02:36:19;;;;;;;9.55;8.00;;;;;;;17.48;62.05;102834.25;4815605;29;20031;-80
2021/11/15 02:38:48;;;;;;;9.77;8.13;;;;;;;17.47;61.88;102835.13;4830296;29;20049;-79
2021/11/15 02:41:15;;;;;;;10.20;8.95;;;;;;;17.45;61.89;102832.47;4801845;29;20063;-81
2021/11/15 02:43:42;;;;;;;10.02;8.40;;;;;;;17.45;61.74;102842.00;4817861;29;20088;-81
2021/11/15 02:46:14;;;;;;;9.15;7.75;;;;;;;17.45;61.90;102835.06;4819058;29;20031;-81
2021/11/15 02:48:40;;;;;;;8.70;7.80;;;;;;;17.46;62.12;102830.75;4833090;29;20096;-80
2021/11/15 02:51:06;;;;;;;9.63;7.80;;;;;;;17.46;62.14;102834.25;4819584;29;20034;-80
2021/11/15 02:53:33;;;;;;;9.20;7.82;;;;;;;17.47;62.02;102833.38;4819887;29;20035;-80
2021/11/15 02:56:00;;;;;;;9.18;7.72;;;;;;;17.45;61.71;102832.47;4788235;29;20520;-81
2021/11/15 02:58:27;;;;;;;11.07;8.50;;;;;;;17.45;61.63;102834.22;4821276;29;20025;-81
2021/11/15 03:00:57;;;;;;;9.77;8.20;;;;;;;17.45;61.49;102832.47;4807777;29;20154;-82
2021/11/15 03:03:24;;;;;;;11.23;8.50;;;;;;;17.47;61.79;102835.13;4804295;30;20027;-81
2021/11/15 03:05:52;;;;;;;8.40;7.47;;;;;;;17.45;61.52;102835.06;4781802;30;20042;-81
2021/11/15 03:08:19;;;;;;;9.85;7.95;;;;;;;17.45;61.97;102837.69;4785634;30;20126;-81
2021/11/15 03:10:46;;;;;;;8.40;7.50;;;;;;;17.45;62.00;102829.00;4770653;30;20047;-81
2021/11/15 03:13:16;;;;;;;8.80;7.90;;;;;;;17.45;61.47;102823.78;4803468;30;20032;-81
2021/11/15 03:15:47;;;;;;;9.30;7.55;;;;;;;17.44;61.72;102830.72;4803379;29;20038;-81
2021/11/15 03:37:00;;;;;;;10.55;7.32;;;;;;;17.43;61.78;102820.28;4828719;29;20045;-85
2021/11/15 03:40:08;;;;;;;9.60;7.50;;;;;;;17.43;61.62;102822.88;4828734;29;20055;-85
2021/11/15 03:45:27;;;;;;;8.55;7.18;;;;;;;17.42;61.77;102821.09;4828145;29;20100;-83
2021/11/15 03:54:24;;;;;;;7.60;6.80;;;;;;;17.42;61.77;102822.00;4772985;30;20095;-85
2021/11/15 03:56:52;;;;;;;8.60;7.32;;;;;;;17.42;61.60;102823.69;4771646;30;20044;-85
2021/11/15 03:59:36;;;;;;;8.63;6.95;;;;;;;17.41;61.54;102824.56;4758366;30;20071;-84
2021/11/15 04:02:11;;;;;;;;;;;;;;;17.42;61.57;102827.22;4758490;30;20036;-85
2021/11/15 04:05:01;;;;;;;8.00;6.93;;;;;;;17.43;61.58;102821.16;4762067;30;19898;-84
2021/11/15 04:07:49;;;;;;;7.65;6.60;;;;;;;17.40;61.78;102828.91;4776877;30;20103;-85
2021/11/15 04:10:28;;;;;;;8.55;6.75;;;;;;;17.40;61.70;102826.28;4776728;30;20044;-84
2021/11/15 04:19:38;;;;;;;7.05;6.35;;;;;;;17.40;61.55;102831.50;4776588;30;20104;-80
2021/11/15 04:22:04;;;;;;;7.10;6.40;;;;;;;17.39;61.41;102831.47;4765173;30;20048;-79
2021/11/15 04:24:30;;;;;;;7.95;6.90;;;;;;;17.39;61.14;102829.72;4762721;30;20496;-80
2021/11/15 04:26:56;;;;;;;7.43;6.45;;;;;;;17.38;61.52;102827.97;4743046;30;20116;-80
2021/11/15 04:29:21;;;;;;;7.15;6.45;;;;;;;17.38;61.27;102830.59;4741596;30;20083;-79
2021/11/15 04:31:47;;;;;;;8.05;6.57;;;;;;;17.38;61.26;102835.78;4741552;30;20040;-81
2021/11/15 04:34:13;;;;;;;7.10;6.30;;;;;;;17.37;61.24;102839.22;4741828;30;20091;-79
2021/11/15 04:36:40;;;;;;;7.25;6.38;;;;;;;17.37;61.27;102834.00;4746085;30;20082;-79
2021/11/15 04:39:05;;;;;;;7.22;6.50;;;;;;;17.37;61.31;102833.13;4760701;30;20039;-79
2021/11/15 04:41:31;;;;;;;7.57;6.78;;;;;;;17.38;61.28;102820.19;4760542;30;20040;-80
2021/11/15 04:43:57;;;;;;;7.40;6.60;;;;;;;17.38;61.33;102820.19;4775139;29;20039;-82
2021/11/15 04:46:24;;;;;;;7.47;6.25;;;;;;;17.38;61.36;102825.38;4797223;29;20393;-82
2021/11/15 04:48:50;;;;;;;7.07;6.22;;;;;;;17.37;61.33;102823.59;4799670;29;20475;-80
2021/11/15 04:51:16;;;;;;;7.40;6.60;;;;;;;17.37;61.16;102825.34;4800311;29;20031;-80
2021/11/15 04:53:42;;;;;;;6.57;5.88;;;;;;;17.36;61.55;102836.59;4797616;29;20115;-79
2021/11/15 04:56:08;;;;;;;6.82;6.13;;;;;;;17.36;61.50;102834.88;4797528;29;20070;-80
2021/11/15 04:58:35;;;;;;;6.93;6.18;;;;;;;17.36;61.18;102840.06;4797288;29;20405;-80
2021/11/15 05:01:07;;;;;;;6.93;5.95;;;;;;;17.38;61.26;102840.13;4783085;30;20035;-80
2021/11/15 05:03:35;;;;;;;7.53;6.13;;;;;;;17.36;61.52;102840.06;4800564;29;20119;-80
2021/11/15 05:06:02;;;;;;;7.03;6.20;;;;;;;17.36;61.19;102837.47;4800148;29;20401;-80
2021/11/15 05:08:27;;;;;;;6.63;5.70;;;;;;;17.34;61.36;102833.97;4798766;29;20028;-80
2021/11/15 05:10:53;;;;;;;6.88;6.18;;;;;;;17.36;61.26;102834.00;4798230;29;20038;-80
2021/11/15 05:13:20;;;;;;;6.65;6.00;;;;;;;17.35;61.26;102838.31;4796945;29;20043;-80
2021/11/15 05:15:45;;;;;;;7.13;5.80;;;;;;;17.35;61.28;102835.69;4797572;29;20070;-80
2021/11/15 05:18:12;;;;;;;6.70;5.88;;;;;;;17.36;61.41;102827.06;4798836;29;20062;-80
2021/11/15 05:20:39;;;;;;;6.78;6.00;;;;;;;17.36;60.97;102834.00;4800119;29;20048;-81
2021/11/15 05:23:06;;;;;;;7.03;6.32;;;;;;;17.36;61.24;102834.88;4805536;29;20408;-81
2021/11/15 05:25:31;;;;;;;6.57;5.88;;;;;;;17.35;61.08;102840.91;4803327;29;20042;-80
2021/11/15 05:27:57;;;;;;;7.45;5.85;;;;;;;17.34;61.11;102836.56;4801550;29;20028;-80
2021/11/15 05:30:31;;;;;;;6.45;5.82;;;;;;;17.34;60.97;102839.16;4801662;29;20128;-82
2021/11/15 05:33:16;;;;;;;6.60;5.80;;;;;;;17.34;61.46;102841.75;4811698;29;20122;-83
2021/11/15 05:35:42;;;;;;;6.78;5.55;;;;;;;17.34;60.71;102838.28;5331152;24;21038;-78
2021/11/15 05:38:14;;;;;;;6.93;5.55;;;;;;;17.35;61.46;102843.50;4817322;29;20065;-85
2021/11/15 05:45:52;;;;;;;6.68;5.28;;;;;;;17.38;61.36;102854.00;5107617;23;20045;-84
2021/11/15 06:02:39;;;;;;;6.10;5.07;;;;;;;17.42;61.67;102844.53;4830418;29;20039;-85
2021/11/15 06:08:51;;;;;;;5.18;4.60;;;;;;;17.39;61.59;102844.47;4811445;30;20034;-85
2021/11/15 06:17:25;;;;;;;15.90;8.30;;;;;;;17.48;61.73;102869.00;4808840;30;20129;-81
2021/11/15 06:19:51;;;;;;;16.23;8.32;;;;;;;17.46;61.73;102867.19;4790208;30;20023;-79
2021/11/15 06:22:44;;;;;;;15.25;8.30;;;;;;;17.46;61.98;102861.97;4806841;29;20055;-82
2021/11/15 06:28:56;;;;;;;13.15;7.53;;;;;;;17.43;61.85;102867.13;4796422;29;20063;-80
2021/11/15 06:31:24;;;;;;;13.32;7.43;;;;;;;17.45;61.87;102868.91;4782917;30;20053;-80
2021/11/15 06:33:56;;;;;;;16.13;7.60;;;;;;;17.44;61.82;102867.16;4781742;30;20047;-80
2021/11/15 06:36:23;;;;;;;9.88;6.78;;;;;;;17.42;61.67;102866.25;4778539;30;20039;-81
2021/11/15 06:38:53;;;;;;;8.77;6.32;;;;;;;17.43;61.59;102865.41;4791833;30;20034;-82
2021/11/15 07:46:48;;;;;;;7.03;5.30;;;;;;;17.45;61.63;102891.47;5112044;24;20046;-82
2021/11/15 07:49:15;;;;;;;7.32;5.53;;;;;;;17.43;61.50;102886.22;4807316;29;20055;-79
2021/11/15 07:51:41;;;;;;;8.35;5.30;;;;;;;17.50;61.37;102888.97;4775423;30;20451;-79
2021/11/15 07:54:07;;;;;;;6.97;5.85;;;;;;;17.55;61.58;102884.75;4787614;29;20039;-78
2021/11/15 07:56:33;;;;;;;10.10;5.95;;;;;;;17.60;61.46;102885.75;4787934;29;20035;-79
2021/11/15 07:58:59;;;;;;;9.18;5.95;;;;;;;17.66;61.65;102891.97;4788639;29;20031;-78
2021/11/15 08:01:24;;;;;;;7.78;6.13;;;;;;;17.67;61.52;102895.44;4788988;29;20392;-78
2021/11/15 08:03:50;;;;;;;8.40;6.40;;;;;;;17.67;61.28;102888.50;4758060;30;20549;-78
2021/11/15 08:06:16;;;;;;;9.07;6.20;;;;;;;17.69;61.45;102881.63;4788185;30;20035;-78
2021/11/15 08:08:42;;;;;;;8.00;6.28;;;;;;;17.73;61.29;102872.16;4788323;29;20120;-78
2021/11/15 08:11:10;;;;;;;8.07;6.03;;;;;;;17.73;61.39;102874.75;4758655;30;20036;-78
2021/11/15 08:13:35;;;;;;;7.38;5.72;;;;;;;17.75;61.35;102873.06;4788478;29;20036;-78
2021/11/15 08:16:01;;;;;;;8.52;6.13;;;;;;;17.78;61.14;102880.06;4774372;30;20042;-78
2021/11/15 08:18:26;;;;;;;7.63;6.20;;;;;;;17.81;61.05;102874.91;4788938;29;20400;-78
2021/11/15 08:20:52;;;;;;;8.40;5.97;;;;;;;17.80;60.91;102876.66;4760248;30;20473;-78
2021/11/15 08:23:19;;;;;;;7.30;5.80;;;;;;;17.81;61.15;102874.91;4774161;30;20035;-77
2021/11/15 08:26:09;;;;;;;7.85;5.80;;;;;;;17.81;61.10;102872.31;4774543;30;20035;-78
2021/11/15 08:28:35;;;;;;;7.35;5.97;;;;;;;17.82;60.91;102876.72;4789239;29;20377;-78
2021/11/15 08:31:03;;;;;;;6.22;5.43;;;;;;;17.84;61.04;102877.63;4759471;30;20539;-78
2021/11/15 08:33:28;;;;;;;7.63;5.60;;;;;;;17.84;60.74;102873.31;4790625;30;20031;-78
2021/11/15 08:35:55;;;;;;;8.85;6.20;;;;;;;17.88;60.59;102879.47;4759095;29;20038;-78
2021/11/15 08:38:23;;;;;;;6.32;5.45;;;;;;;17.85;60.60;102875.03;4787722;30;20035;-78
2021/11/15 08:40:51;;;;;;;6.63;5.50;;;;;;;17.86;60.53;102876.81;4787082;29;20055;-78
2021/11/15 08:43:18;;;;;;;7.28;5.57;;;;;;;17.88;60.80;102879.47;4787215;30;20031;-78
2021/11/15 08:45:43;;;;;;;6.25;5.55;;;;;;;17.87;60.35;102881.16;4784396;29;20129;-78
2021/11/15 08:48:09;;;;;;;7.63;5.70;;;;;;;17.92;60.59;102888.19;4755804;30;20146;-78
2021/11/15 08:50:35;;;;;;;6.15;5.13;;;;;;;17.91;60.52;102879.50;4789072;30;20032;-78
2021/11/15 08:53:01;;;;;;;6.65;5.30;;;;;;;17.91;60.48;102882.13;4759337;30;20113;-78
2021/11/15 08:55:27;;;;;;;6.28;4.95;;;;;;;17.91;60.58;102878.66;4775570;30;20040;-78
2021/11/15 08:57:53;;;;;;;6.35;5.32;;;;;;;17.91;60.73;102873.44;4774421;30;20104;-78
2021/11/15 09:00:19;;;;;;;6.72;5.15;;;;;;;17.92;60.44;102876.09;4759179;30;20059;-78
2021/11/15 09:02:45;;;;;;;6.93;5.15;;;;;;;17.92;60.42;102880.38;4774390;30;20067;-78
2021/11/15 09:05:11;;;;;;;5.75;4.85;;;;;;;17.93;60.55;102874.34;4773102;30;20097;-78
2021/11/15 09:07:37;;;;;;;6.13;4.75;;;;;;;17.93;60.66;102871.75;4758240;30;20388;-78
2021/11/15 09:10:08;;;;;;;7.38;5.13;;;;;;;17.92;60.28;102872.56;4772340;30;20047;-78
2021/11/15 09:12:35;;;;;;;6.60;5.00;;;;;;;17.93;60.43;102870.00;4757885;30;20073;-78
2021/11/15 09:15:01;;;;;;;6.05;4.82;;;;;;;17.91;60.46;102868.22;4772847;30;20035;-78
2021/11/15 09:17:26;;;;;;;5.38;4.85;;;;;;;17.90;60.44;102877.78;4757935;30;20165;-78
2021/11/15 09:19:53;;;;;;;6.40;4.75;;;;;;;17.89;60.52;102874.25;4757583;30;20028;-78
2021/11/15 09:22:19;;;;;;;6.57;5.40;;;;;;;17.86;60.69;102866.41;4772012;30;20043;-78
2021/11/15 09:24:45;;;;;;;6.13;5.00;;;;;;;17.87;60.64;102869.88;4757248;30;20043;-78
2021/11/15 09:27:14;;;;;;;6.03;5.05;;;;;;;17.86;60.61;102860.31;4772578;30;20040;-78
2021/11/15 09:29:45;;;;;;;6.32;5.25;;;;;;;17.85;60.62;102868.97;4772677;30;20130;-78
2021/11/15 09:32:11;;;;;;;5.43;4.88;;;;;;;17.84;60.76;102865.47;4786859;30;20031;-78
2021/11/15 09:34:40;;;;;;;6.95;5.20;;;;;;;17.84;60.76;102864.59;4772075;30;20109;-78
2021/11/15 09:37:06;;;;;;;6.68;5.38;;;;;;;17.83;60.62;102861.13;4757476;30;20028;-78
2021/11/15 09:39:32;;;;;;;6.18;4.68;;;;;;;17.84;60.58;102869.81;4757858;30;20047;-78
2021/11/15 09:41:59;;;;;;;6.68;5.25;;;;;;;17.82;60.66;102867.19;4772812;30;20066;-78
2021/11/15 09:44:26;;;;;;;5.60;4.78;;;;;;;17.82;60.79;102872.38;4788212;30;20036;-78
2021/11/15 09:46:52;;;;;;;6.63;5.20;;;;;;;17.81;60.77;102864.50;4758105;30;20126;-78
2021/11/15 09:49:18;;;;;;;5.15;4.60;;;;;;;17.82;60.63;102861.97;4804794;29;20130;-78
2021/11/15 09:51:47;;;;;;;7.32;4.93;;;;;;;17.82;60.60;102864.56;4790031;29;20042;-78
2021/11/15 09:54:16;;;;;;;6.20;4.78;;;;;;;17.81;60.48;102862.78;4791071;29;20035;-78
2021/11/15 09:56:42;;;;;;;5.70;5.10;;;;;;;17.81;60.56;102867.09;4791224;29;20069;-81
2021/11/15 09:59:11;;;;;;;5.30;4.78;;;;;;;17.81;60.67;102867.09;4811407;29;20058;-83
2021/11/15 10:01:49;;;;;;;5.43;4.80;;;;;;;17.78;60.43;102865.31;4807369;29;20054;-83
2021/11/15 10:04:18;;;;;;;5.03;4.35;;;;;;;17.79;60.38;102867.09;4812155;29;20038;-82
2021/11/15 10:06:48;;;;;;;5.68;4.85;;;;;;;17.80;60.52;102878.38;4811476;29;20031;-82
2021/11/15 10:09:23;;;;;;;5.88;4.80;;;;;;;17.80;60.52;102874.03;4794843;30;20031;-82
2021/11/15 10:11:53;;;;;;;5.78;5.10;;;;;;;17.79;60.57;102869.69;4826310;29;20034;-83
2021/11/15 10:14:22;;;;;;;5.50;4.88;;;;;;;17.78;60.56;102859.22;4796052;29;20035;-83
2021/11/15 10:16:59;;;;;;;6.65;5.00;;;;;;;17.78;60.33;102862.72;4826202;29;20015;-83
2021/11/15 10:19:27;;;;;;;5.82;4.80;;;;;;;17.77;60.54;102860.06;4811229;29;20019;-83
2021/11/15 10:22:01;;;;;;;5.78;4.63;;;;;;;17.78;60.67;102856.63;4812022;29;20019;-83
2021/11/15 10:24:34;;;;;;;5.57;4.75;;;;;;;17.77;60.45;102857.47;4826012;29;20094;-83
2021/11/15 10:27:08;;;;;;;5.57;4.28;;;;;;;17.78;60.30;102851.41;4826016;29;20027;-83
2021/11/15 10:29:42;;;;;;;6.60;4.65;;;;;;;17.78;60.47;102846.22;4811636;29;20046;-83
2021/11/15 10:32:11;;;;;;;6.30;4.68;;;;;;;17.78;60.15;102851.41;4826290;29;20043;-83
2021/11/15 10:34:42;;;;;;;5.95;4.90;;;;;;;17.77;60.41;102855.75;4795685;30;20023;-83
2021/11/15 10:37:18;;;;;;;5.70;4.82;;;;;;;17.76;60.62;102853.09;4795912;29;20057;-83
2021/11/15 10:39:48;;;;;;;5.60;4.80;;;;;;;17.76;60.40;102853.97;4810580;29;20037;-83
2021/11/15 10:42:34;;;;;;;5.68;4.75;;;;;;;17.76;60.49;102851.38;4792375;29;20065;-83
2021/11/15 10:45:08;;;;;;;5.32;4.53;;;;;;;17.77;60.03;102858.34;4825008;29;20050;-83
2021/11/15 10:47:42;;;;;;;5.72;4.40;;;;;;;17.77;60.08;102847.94;4810858;29;20063;-83
2021/11/15 10:50:23;;;;;;;6.38;4.90;;;;;;;17.77;60.11;102853.16;4795249;29;20050;-83
2021/11/15 10:53:07;;;;;;;6.32;4.68;;;;;;;17.77;60.22;102841.81;4825700;29;20040;-83
2021/11/15 10:55:43;;;;;;;5.75;4.68;;;;;;;17.75;60.43;102849.63;4825769;29;20160;-83
2021/11/15 10:58:22;;;;;;;6.07;4.57;;;;;;;17.77;60.24;102852.25;4825201;29;20031;-83
2021/11/15 11:00:58;;;;;;;5.85;4.72;;;;;;;17.76;60.23;102845.28;4825554;29;20024;-83
2021/11/15 11:03:27;;;;;;;5.57;4.85;;;;;;;17.76;60.24;102843.56;4825030;29;20058;-83
2021/11/15 11:06:01;;;;;;;6.25;4.82;;;;;;;17.75;60.04;102839.22;4825774;29;20011;-83
2021/11/15 11:08:31;;;;;;;5.15;4.47;;;;;;;17.74;60.11;102834.84;4794920;29;20073;-83
2021/11/15 11:11:10;;;;;;;6.30;4.85;;;;;;;17.74;60.11;102841.78;4824982;29;20038;-83
2021/11/15 11:13:57;;;;;;;5.70;4.90;;;;;;;17.76;59.85;102847.91;4823333;29;20094;-82
2021/11/15 11:16:42;;;;;;;5.80;4.90;;;;;;;17.75;60.16;102839.22;4791656;29;20134;-83
2021/11/15 11:19:17;;;;;;;6.35;5.13;;;;;;;17.75;59.89;102828.81;4822192;29;20063;-83
2021/11/15 11:24:58;;;;;;;5.60;4.72;;;;;;;17.74;59.91;102829.63;4805969;29;20035;-83
2021/11/15 11:27:16;;;;;;;5.53;4.60;;;;;;;17.74;59.80;102826.16;4810239;29;20035;-83
2021/11/15 11:29:48;;;;;;;6.28;5.00;;;;;;;17.74;60.11;102823.56;4791496;29;20497;-83
2021/11/15 11:32:20;;;;;;;5.47;4.68;;;;;;;17.75;60.10;102833.13;4821763;29;20031;-83
2021/11/15 11:34:48;;;;;;;5.87;4.67;;;;;;;17.75;59.87;102825.31;4822799;29;20031;-83
2021/11/15 11:37:19;;;;;;;5.53;4.57;;;;;;;17.73;60.03;102825.28;4822388;29;20273;-83
2021/11/15 11:39:46;;;;;;;5.57;4.57;;;;;;;17.73;59.99;102827.00;4792500;29;20023;-83
2021/11/15 11:42:15;;;;;;;6.78;5.15;;;;;;;17.73;60.01;102822.69;4792114;30;20020;-83
2021/11/15 11:44:44;;;;;;;5.70;4.60;;;;;;;17.74;59.80;102823.56;4822645;29;20023;-83
2021/11/15 11:47:13;;;;;;;5.97;4.85;;;;;;;17.73;59.79;102825.28;4792821;29;20015;-83
2021/11/15 11:49:40;;;;;;;5.40;4.70;;;;;;;17.74;59.80;102820.94;4792979;29;20031;-82
2021/11/15 11:52:10;;;;;;;6.32;4.85;;;;;;;17.73;60.19;102819.19;4792724;29;20039;-82
2021/11/15 11:54:44;;;;;;;7.03;4.80;;;;;;;17.71;59.88;102826.97;4822368;29;20027;-83
2021/11/15 11:57:31;;;;;;;5.85;4.72;;;;;;;17.73;59.80;102827.00;4792585;29;20037;-82
2021/11/15 12:00:14;;;;;;;6.10;5.00;;;;;;;17.72;59.70;102820.91;4808608;29;20038;-83
2021/11/15 12:02:43;;;;;;;5.95;4.50;;;;;;;17.72;59.47;102815.69;4823387;29;20056;-83
2021/11/15 12:05:29;;;;;;;4.75;4.25;;;;;;;17.72;59.51;102820.91;4789813;29;20032;-82
2021/11/15 12:07:57;;;;;;;5.95;4.50;;;;;;;17.70;59.65;102809.56;4792834;29;20091;-83
2021/11/15 12:10:49;;;;;;;6.10;4.57;;;;;;;17.71;59.76;102807.88;4792178;30;20027;-82
2021/11/15 12:13:19;;;;;;;5.55;4.82;;;;;;;17.71;59.55;102803.53;4792112;29;20031;-83
2021/11/15 12:15:59;;;;;;;6.10;4.50;;;;;;;17.71;59.75;102813.94;4808511;29;20030;-83
2021/11/15 12:18:34;;;;;;;6.78;4.88;;;;;;;17.71;59.56;102813.09;4792274;30;20038;-83
2021/11/15 12:20:59;;;;;;;5.40;4.28;;;;;;;17.71;59.76;102813.09;4793325;29;20031;-83
2021/11/15 12:23:27;;;;;;;5.68;4.70;;;;;;;17.70;59.40;102814.78;4823257;29;20027;-83
2021/11/15 12:26:15;;;;;;;5.78;4.68;;;;;;;17.70;59.45;102806.97;4795924;29;20038;-83
2021/11/15 12:28:44;;;;;;;5.07;4.53;;;;;;;17.69;59.67;102800.03;4813081;29;20027;-82
2021/11/15 12:31:12;;;;;;;5.80;4.80;;;;;;;17.68;59.89;102801.75;4827309;29;20047;-83
2021/11/15 12:33:40;;;;;;;5.38;4.30;;;;;;;17.69;59.45;102800.03;4797434;30;20046;-82
2021/11/15 12:36:08;;;;;;;5.57;4.30;;;;;;;17.68;59.60;102793.94;4812673;29;20120;-83
2021/11/15 12:38:39;;;;;;;5.47;4.50;;;;;;;17.69;59.43;102790.47;4812368;29;20091;-83
2021/11/15 12:41:34;;;;;;;7.00;4.93;;;;;;;17.69;59.81;102792.22;4797674;29;20015;-83
2021/11/15 12:44:00;;;;;;;4.85;4.10;;;;;;;17.68;59.38;102785.22;4812631;29;20037;-82
2021/11/15 12:46:39;;;;;;;6.72;4.50;;;;;;;17.69;59.46;102787.00;4821967;29;20035;-82
2021/11/15 12:49:44;;;;;;;5.15;4.30;;;;;;;17.67;59.40;102784.34;4780315;30;20055;-83
2021/11/15 12:52:10;;;;;;;7.00;5.15;;;;;;;17.68;59.46;102780.91;4808838;30;20099;-82
2021/11/15 12:54:51;;;;;;;6.38;4.82;;;;;;;17.68;59.32;102782.63;4808517;29;20070;-80
2021/11/15 12:57:17;;;;;;;6.50;4.85;;;;;;;17.69;59.46;102784.41;4773486;30;20041;-83
2021/11/15 12:59:54;;;;;;;5.97;4.53;;;;;;;17.71;59.66;102782.72;4800873;30;20035;-81
2021/11/15 13:02:20;;;;;;;6.07;4.25;;;;;;;17.71;59.44;102780.09;4766122;30;20035;-81
2021/11/15 13:04:46;;;;;;;5.68;4.68;;;;;;;17.75;59.16;102776.72;4784596;30;20444;-81
2021/11/15 13:07:16;;;;;;;6.05;4.78;;;;;;;17.76;59.37;102778.47;4773141;30;20097;-82
2021/11/15 13:09:59;;;;;;;8.38;4.72;;;;;;;17.77;59.53;102774.13;4770722;30;20024;-81
2021/11/15 13:12:27;;;;;;;6.38;5.00;;;;;;;17.80;59.56;102779.41;4785765;30;20474;-82
2021/11/15 13:14:54;;;;;;;6.88;4.63;;;;;;;17.79;59.40;102780.25;4799950;30;20122;-81
2021/11/15 13:17:21;;;;;;;5.78;4.43;;;;;;;17.81;59.46;102775.94;4785323;30;20043;-82
2021/11/15 13:19:51;;;;;;;6.00;4.75;;;;;;;17.79;59.38;102775.94;4785327;30;20077;-81
2021/11/15 13:22:19;;;;;;;7.38;4.70;;;;;;;17.81;59.22;102776.84;4787725;30;20473;-82
2021/11/15 13:24:45;;;;;;;7.95;4.97;;;;;;;17.80;59.35;102762.06;4792407;30;20043;-82
2021/11/15 13:27:15;;;;;;;8.00;4.78;;;;;;;17.79;59.42;102760.31;4806214;30;20042;-83
2021/11/15 13:29:41;;;;;;;4.88;4.20;;;;;;;17.81;59.42;102758.63;4784216;30;20035;-81
2021/11/15 13:32:07;;;;;;;5.68;5.05;;;;;;;17.83;59.42;102762.16;4774489;30;20032;-79
2021/11/15 13:34:33;;;;;;;6.65;4.25;;;;;;;17.82;59.44;102760.41;4780967;30;20191;-78
2021/11/15 13:36:58;;;;;;;6.22;4.72;;;;;;;17.83;59.47;102753.44;4775203;30;20040;-78
2021/11/15 13:39:24;;;;;;;5.22;4.32;;;;;;;17.83;59.69;102753.44;4774060;30;20054;-78
2021/11/15 13:41:50;;;;;;;7.82;4.40;;;;;;;17.84;59.36;102757.84;4774262;30;20036;-78
2021/11/15 13:44:17;;;;;;;6.22;4.93;;;;;;;17.84;59.36;102763.03;4779570;30;20128;-78
2021/11/15 13:46:43;;;;;;;5.40;4.10;;;;;;;17.85;59.59;102760.44;4792043;29;20512;-78
2021/11/15 13:49:09;;;;;;;5.18;4.40;;;;;;;17.84;59.08;102760.44;4778782;30;20070;-78
2021/11/15 13:51:35;;;;;;;5.70;4.28;;;;;;;17.84;59.39;102758.69;4780322;30;20047;-78
2021/11/15 13:54:00;;;;;;;5.25;4.28;;;;;;;17.83;59.52;102751.75;4792531;29;20040;-77
2021/11/15 13:56:26;;;;;;;4.97;3.92;;;;;;;17.86;59.55;102756.13;4804939;29;20384;-79
2021/11/15 13:58:51;;;;;;;5.50;4.30;;;;;;;17.86;59.48;102757.00;4774729;29;20141;-78
2021/11/15 14:01:17;;;;;;;6.28;4.32;;;;;;;17.85;59.55;102752.63;4789626;29;20028;-78
2021/11/15 14:03:43;;;;;;;6.90;4.30;;;;;;;17.87;59.29;102756.16;4774932;30;20043;-78
2021/11/15 14:06:09;;;;;;;5.38;3.90;;;;;;;17.88;59.34;102754.44;4791877;29;20034;-78
2021/11/15 14:08:34;;;;;;;6.70;4.18;;;;;;;17.87;59.41;102763.09;4805736;29;20035;-78
2021/11/15 14:11:01;;;;;;;5.63;4.05;;;;;;;17.87;59.26;102755.28;4804508;29;20035;-78
2021/11/15 14:13:28;;;;;;;5.70;4.20;;;;;;;17.88;59.40;102749.22;4774950;29;20058;-78
2021/11/15 14:15:57;;;;;;;5.05;3.90;;;;;;;17.87;59.25;102745.72;4804669;29;20043;-78
2021/11/15 14:18:22;;;;;;;5.10;4.20;;;;;;;17.89;59.38;102762.25;4804316;29;20129;-78
2021/11/15 14:20:48;;;;;;;5.18;3.90;;;;;;;17.89;59.30;102756.19;4789364;29;20511;-78
2021/11/15 14:23:14;;;;;;;7.00;4.15;;;;;;;17.89;59.21;102762.25;4776042;29;20039;-78
2021/11/15 14:25:39;;;;;;;5.18;4.10;;;;;;;17.90;59.25;102757.97;4789578;29;20409;-79
2021/11/15 14:28:11;;;;;;;5.68;3.50;;;;;;;17.91;59.23;102749.28;4789637;29;20035;-78